Tiempo atmosférico en la estación meteorológica de La Aldea de San Nicolás, Las Palmas (318 m.)



Fecha
DESCASC
Temp. máxima en grados centígrados (hora)
DESCASC
Temp. mínima en grados centígrados (hora)
DESCASC
Temp. media en grados centígrados
DESCASC
Racha de viento máxima en m/sg (hora)
DESCASC
Velocidad máxima media en intervalos de 10 minutos(hora)
DESCASC
Precipitaciones diarias en mm
DESCASC
Precipitaciones de 00:00 a 06:00 en mm
DESCASC
Precipitaciones de 06:00 a 12:00 en mm
DESCASC
Precipitaciones de 12:00 a 18:00 en mm
DESCASC
Precipitaciones de 18:00 a 24:00 en mm
DESCASC
31-03-2020 24.3 (16:50) 13.3 (08:10) 18.8 9.72 (15:20) 6.94 (15:00) 0 0 0 0 0
30-03-2020 24.2 (17:40) 12.4 (08:30) 18.3 12.5 (15:40) 8.61 (14:10) 0 0 0 0 0
29-03-2020 22.5 (16:10) 11.5 (00:00) 17 6.67 (14:10) 4.44 (12:20) 0 0 0 0 0
28-03-2020 23 (13:40) 13.8 (00:00) 18.4 13.06 (12:20) 6.39 (16:30) 0 0 0 0 0
27-03-2020 23.1 (12:10) 15.1 (00:00) 19.1 10.56 (21:30) 5.83 (21:40) 0.4 0.2 0 0 0.2
26-03-2020 22.6 (16:20) 13.5 (00:00) 18.1 7.78 (15:40) 4.17 (17:10) 0 0 0 0 0
25-03-2020 23.5 (13:00) 16.4 (00:00) 19.9 12.5 (20:20) 5.83 (12:30) 0 0 0 0 0
24-03-2020 23.8 (16:50) 15.3 (00:00) 19.5 13.33 (02:50) 6.67 (13:00) 2.4 2.2 0.2 0 0
23-03-2020 19.5 (17:10) 13.7 (00:00) 16.6 20 (06:00) 8.61 (08:10) 8.2 0 6.6 1.6 0
22-03-2020 23.4 (12:50) 16.4 (07:30) 19.9 11.11 (19:00) 6.39 (16:20) 0 0 0 0 0
21-03-2020 23.5 (12:30) 16.5 (00:00) 20 16.67 (13:30) 7.5 (00:20) 0 0 0 0 0
20-03-2020 25.7 (15:00) 17.7 (00:00) 21.7 16.39 (13:00) 7.5 (12:30) 0 0 0 0 0
19-03-2020 25 (14:40) 17.6 (00:00) 21.3 18.89 (15:00) 7.78 (12:00) 1.4 0 1.4 0 0
18-03-2020 22.7 (15:40) 15 (00:00) 18.9 19.44 (04:30) 8.33 (03:40) 0.4 0.2 0 0 0.2
17-03-2020 23.8 (14:10) 15.4 (00:00) 19.6 21.11 (15:50) 9.72 (15:50) 0 0 0 0 0
16-03-2020 25.6 (14:30) 17 (00:00) 21.3 20 (16:40) 10.28 (16:50) 0 0 0 0 0
15-03-2020 25.3 (14:20) 16.9 (00:00) 21.1 16.39 (18:30) 8.06 (19:40) 1.4 0 0 1.2 0.2
14-03-2020 23.4 (14:20) 15.8 (00:00) 19.6 17.78 (08:30) 10.28 (07:50) 0 0 0 0 0
13-03-2020 23.9 (12:40) 14.3 (07:30) 19.1 18.33 (18:00) 11.39 (20:50) 0 0 0 0 0
12-03-2020 26.6 (14:20) 10.2 (00:00) 18.4 11.94 (16:30) 7.22 (23:40) 0 0 0 0 0
11-03-2020 27.7 (16:40) 10.5 (00:00) 19.1 8.61 (12:10) 6.11 (12:40) 0 0 0 0 0
10-03-2020 26.1 (14:50) 10.2 (00:00) 18.2 11.11 (15:50) 7.5 (15:50) 0 0 0 0 0
09-03-2020 27.5 (14:20) 12.4 (00:00) 19.9 12.22 (01:10) 7.78 (00:20) 0 0 0 0 0
08-03-2020 27.2 (16:10) 12.8 (00:00) 20 16.11 (00:40) 8.33 (01:00) 0 0 0 0 0
07-03-2020 22.1 (14:40) 17.2 (00:00) 19.7 22.22 (04:10) 12.5 (17:50) 0 0 0 0 0
06-03-2020 21.2 (13:50) 17.3 (00:00) 19.3 26.11 (09:40) 16.39 (13:10) 0 0 0 0 0
05-03-2020 22.5 (15:00) 15 (00:00) 18.8 23.61 (21:30) 14.72 (22:50) 0 0 0 0 0
04-03-2020 25.1 (17:00) 11.6 (00:00) 18.4 13.61 (12:40) 8.33 (12:40) 0 0 0 0 0

Gráficas

Temp. máximas Temp. mínimas Temp. medias Precipitaciones Rachas de viento máximas Velocidades máximas media en intervalos de 10 minutos

Datos horarios

Fecha y hora oficial Temperatura (ºC) Velocidad del viento (km/h) Dirección del viento Racha (km/h) Dirección de racha Precipitación (mm) Presión (hPa) Tendencia (hPa) Humedad (%)
2020-04-02 23:00:00 16.4 5 Sudeste 18 Sur 0 -- -- 85
2020-04-02 22:00:00 16.9 9 Sur 15 Sur 0 -- -- 82
2020-04-02 21:00:00 17.2 11 Sur 19 Sur 0 -- -- 79
2020-04-02 20:00:00 17.9 12 Sur 20 Sudoeste 0 -- -- 75
2020-04-02 19:00:00 18.8 13 Sur 18 Sur 0 -- -- 72
2020-04-02 18:00:00 19.5 13 Sur 24 Sur 0 -- -- 70
2020-04-02 17:00:00 21.2 18 Sur 29 Sur 0 -- -- 64
2020-04-02 16:00:00 22.1 18 Sur 29 Sur 0 -- -- 60
2020-04-02 15:00:00 22.1 21 Sur 30 Sur 0 -- -- 59
2020-04-02 14:00:00 23.5 22 Sur 31 Sur 0 -- -- 55
2020-04-02 13:00:00 23.1 18 Sur 27 Sur 0 -- -- 57
2020-04-02 12:00:00 21.3 15 Sur 22 Sur 0 -- -- 62
2020-04-02 11:00:00 19.5 13 Sur 21 Sur 0 -- -- 69
2020-04-02 10:00:00 15.5 2 Nordeste 6 Nordeste 0 -- -- 85
2020-04-02 09:00:00 13.6 5 Nordeste 13 Norte 0 -- -- 86
2020-04-02 08:00:00 13.1 4 Norte 12 Norte 0 -- -- 87
2020-04-02 07:00:00 13.3 5 Norte 10 Nordeste 0 -- -- 86
2020-04-02 06:00:00 13.6 5 Norte 10 Norte 0 -- -- 86
2020-04-02 05:00:00 13.5 6 Norte 10 Norte 0 -- -- 85
2020-04-02 04:00:00 13.9 4 Norte 9 Norte 0 -- -- 82
2020-04-02 03:00:00 14.6 7 Norte 9 Norte 0 -- -- 80
2020-04-02 02:00:00 14.9 2 Norte 6 Norte 0 -- -- 84
2020-04-02 01:00:00 15.5 4 Sur 13 Sur 0 -- -- 82
2020-04-02 00:00:00 16 3 Sur 9 Norte 0 -- -- 76
2020-04-01 23:00:00 16.5 7 Norte 14 Norte 0 -- -- 71
2020-04-01 22:00:00 17 2 Sudoeste 13 Sur 0 -- -- 71
2020-04-01 21:00:00 17.8 10 Sur 20 Sudoeste 0 -- -- 65
2020-04-01 20:00:00 19.4 12 Sur 23 Sur 0 -- -- 60
2020-04-01 19:00:00 21.3 16 Sur 27 Sur 0 -- -- 55
2020-04-01 18:00:00 25.2 18 Sur 31 Sur 0 -- -- 46
2020-04-01 17:00:00 25.8 21 Sur 34 Sur 0 -- -- 45
2020-04-01 16:00:00 26 24 Sur 33 Sur 0 -- -- 45
2020-04-01 15:00:00 24.6 20 Sur 31 Sur 0 -- -- 49
2020-04-01 14:00:00 23.9 23 Sur 30 Sur 0 -- -- 50
2020-04-01 13:00:00 23.8 21 Sur 28 Sur 0 -- -- 53
2020-04-01 12:00:00 22.5 17 Sur 23 Sur 0 -- -- 58
2020-04-01 11:00:00 19.1 7 Sur 13 Sur 0 -- -- 71
2020-04-01 10:00:00 16.8 0 Calma 4 Sur 0 -- -- 78
2020-04-01 09:00:00 15.3 3 Norte 9 Norte 0 -- -- 82
2020-04-01 08:00:00 14.5 9 Norte 11 Norte 0 -- -- 82
2020-04-01 07:00:00 15.1 6 Nordeste 16 Norte 0 -- -- 79
2020-04-01 06:00:00 15.1 5 Nordeste 14 Nordeste 0 -- -- 84
2020-04-01 05:00:00 15.3 4 Norte 11 Nordeste 0 -- -- 85
2020-04-01 04:00:00 15.9 0 Calma 7 Nordeste 0 -- -- 86
2020-04-01 03:00:00 16.1 5 Nordeste 9 Nordeste 0 -- -- 86
2020-04-01 02:00:00 16.3 0 Calma 5 Sudeste 0 -- -- 88
2020-04-01 01:00:00 16.2 0 Calma 6 Nordeste 0 -- -- 87
2020-04-01 00:00:00 16.6 0 Calma 5 Sudeste 0 -- -- 87
2020-03-31 23:00:00 17 0 Calma 10 Sur 0 -- -- 84
2020-03-31 22:00:00 17.4 6 Sur 15 Sudoeste 0 -- -- 82
2020-03-31 21:00:00 18 10 Sur 16 Sur 0 -- -- 78
2020-03-31 20:00:00 19 12 Sur 21 Sur 0 -- -- 73
2020-03-31 19:00:00 21.1 13 Sur 23 Sur 0 -- -- 65
2020-03-31 18:00:00 24.6 19 Sur 28 Sur 0 -- -- 56
2020-03-31 17:00:00 25.1 22 Sur 32 Sur 0 -- -- 53
2020-03-31 16:00:00 25.2 20 Sur 30 Sur 0 -- -- 54
2020-03-31 15:00:00 22.8 20 Sur 30 Sur 0 -- -- 60
2020-03-31 14:00:00 23.5 22 Sur 28 Sur 0 -- -- 56
2020-03-31 13:00:00 23.5 21 Sur 29 Sur 0 -- -- 56
2020-03-31 12:00:00 22.3 17 Sur 26 Sur 0 -- -- 59
2020-03-31 11:00:00 20.2 8 Sur 16 Sur 0 -- -- 67
2020-03-31 10:00:00 16 4 Nordeste 6 Nordeste 0 -- -- 79
2020-03-31 09:00:00 14.3 5 Norte 11 Norte 0 -- -- 83
2020-03-31 08:00:00 13.9 6 Norte 11 Norte 0 -- -- 82
2020-03-31 07:00:00 14.3 5 Nordeste 12 Norte 0 -- -- 81
2020-03-31 06:00:00 14.5 7 Norte 10 Norte 0 -- -- 84
2020-03-31 05:00:00 15.2 4 Norte 8 Norte 0 -- -- 86
2020-03-31 04:00:00 14.6 2 Norte 9 Norte 0 -- -- 87
2020-03-31 03:00:00 14.4 0 Calma 9 Norte 0 -- -- 86
2020-03-31 02:00:00 14.7 0 Calma 7 Nordeste 0 -- -- 85
2020-03-31 01:00:00 14.9 5 Norte 10 Norte 0 -- -- 84
2020-03-31 00:00:00 15.1 6 Norte 9 Norte 0 -- -- 83
2020-03-30 23:00:00 15.6 0 Calma 7 Sur 0 -- -- 81
2020-03-30 22:00:00 16.2 5 Sur 12 Sudoeste 0 -- -- 77
2020-03-30 21:00:00 17 7 Sur 18 Sur 0 -- -- 74
2020-03-30 20:00:00 18.4 13 Sur 26 Sur 0 -- -- 70
2020-03-30 19:00:00 22.2 18 Sur 23 Sur 0 -- -- 58
2020-03-30 18:00:00 22.8 18 Sur 27 Sur 0 -- -- 54
2020-03-30 17:00:00 22.8 19 Sur 29 Sur 0 -- -- 56
2020-03-30 16:00:00 23.4 19 Sur 29 Sur 0 -- -- 56
2020-03-30 15:00:00 23.4 23 Sur 32 Sur 0 -- -- 56
2020-03-30 14:00:00 23 22 Sur 32 Sur 0 -- -- 58
2020-03-30 13:00:00 22.3 18 Sur 25 Sur 0 -- -- 58
2020-03-30 12:00:00 20.9 15 Sur 24 Sur 0 -- -- 61
2020-03-30 11:00:00 18.8 9 Sur 16 Sur 0 -- -- 69
2020-03-30 10:00:00 14.7 0 Calma 9 Norte 0 -- -- 86
2020-03-30 09:00:00 12.9 4 Norte 8 Norte 0 -- -- 86
2020-03-30 08:00:00 12.8 4 Norte 13 Norte 0 -- -- 85
2020-03-30 07:00:00 13 6 Nordeste 8 Norte 0 -- -- 85
2020-03-30 06:00:00 13.1 4 Norte 9 Norte 0 -- -- 85
2020-03-30 05:00:00 13.6 4 Norte 9 Norte 0 -- -- 85
2020-03-30 04:00:00 14 3 Norte 7 Norte 0 -- -- 84
2020-03-30 03:00:00 14.5 0 Calma 5 Norte 0 -- -- 82
2020-03-30 02:00:00 14.5 5 Norte 7 Nordeste 0 -- -- 82
2020-03-30 01:00:00 14.7 0 Calma 6 Noroeste 0 -- -- 81
2020-03-30 00:00:00 15 5 Norte 15 Norte 0 -- -- 80
2020-03-29 23:00:00 15.2 9 Nordeste 13 Nordeste 0 -- -- 79
2020-03-29 22:00:00 15.6 6 Nordeste 12 Sur 0 -- -- 76
2020-03-29 21:00:00 16.4 8 Sur 19 Norte 0 -- -- 73
2020-03-29 20:00:00 16.7 12 Norte 19 Norte 0 -- -- 71
2020-03-29 19:00:00 18.8 8 Sur 26 Sur 0 -- -- 65
2020-03-29 18:00:00 22.5 15 Sur 31 Sur 0 -- -- 53
2020-03-29 17:00:00 21.8 16 Sur 26 Sur 0 -- -- 50
2020-03-29 16:00:00 21.3 13 Sur 23 Sur 0 -- -- 55
2020-03-29 15:00:00 20.2 15 Sur 26 Sur 0 -- -- 60
2020-03-29 14:00:00 19.8 17 Sur 26 Sur 0 -- -- 67
2020-03-29 13:00:00 18.5 13 Sur 20 Sudoeste 0 -- -- 71
2020-03-29 12:00:00 16.8 11 Sur 16 Sur 0 -- -- 79
2020-03-29 11:00:00 16.4 9 Sur 14 Sudeste 0 -- -- 76
2020-03-29 10:00:00 14.3 2 Sudeste 8 Norte 0 -- -- 83
2020-03-29 09:00:00 12.3 3 Norte 12 Norte 0 -- -- 86
2020-03-29 08:00:00 12.2 5 Nordeste 12 Nordeste 0 -- -- 86
2020-03-29 07:00:00 12.4 9 Norte 12 Norte 0 -- -- 86
2020-03-29 06:00:00 12.4 8 Norte 10 Norte 0 -- -- 86
2020-03-29 05:00:00 12.8 3 Norte 10 Norte 0 -- -- 85
2020-03-29 04:00:00 13.1 6 Nordeste 10 Norte 0 -- -- 84
2020-03-29 00:00:00 14.1 4 Nordeste 9 Nordeste 0 -- -- 78
2020-03-28 23:00:00 14.4 6 Norte 9 Norte 0 -- -- 79
2020-03-28 22:00:00 14.7 4 Norte 8 Nordeste 0 -- -- 78
2020-03-28 21:00:00 15.4 7 Nordeste 19 Nordeste 0 -- -- 75
2020-03-28 20:00:00 15.9 10 Nordeste 18 Este 0 -- -- 73
2020-03-28 19:00:00 17.4 7 Sur 16 Sur 0 -- -- 71
2020-03-28 18:00:00 18.1 4 Sudoeste 11 Sudoeste 0 -- -- 70
2020-03-28 17:00:00 17.9 10 Sur 20 Sur 0 -- -- 73
2020-03-28 16:00:00 17.7 12 Sur 24 Sur 0 -- -- 75
2020-03-28 15:00:00 20.3 20 Sur 29 Sur 0 -- -- 65
2020-03-28 14:00:00 20.2 15 Sur 26 Sur 0 -- -- 68
2020-03-28 13:00:00 21 17 Sur 25 Sur 0 -- -- 62
2020-03-28 12:00:00 18.2 14 Sur 26 Sur 0 -- -- 72
2020-03-28 11:00:00 18.3 18 Sur 29 Sur 0 -- -- 66
2020-03-28 10:00:00 17.5 10 Nordeste 17 Nordeste 0 -- -- 55
2020-03-28 09:00:00 15.9 9 Nordeste 24 Este 0 -- -- 61
2020-03-28 08:00:00 14.9 13 Este 32 Nordeste 0 -- -- 62
2020-03-28 07:00:00 14.9 19 Nordeste 39 Nordeste 0 -- -- 63
2020-03-28 06:00:00 14.7 22 Norte 38 Norte 0 -- -- 65
2020-03-28 05:00:00 14.8 26 Norte 38 Norte 0.2 -- -- 66
2020-03-28 04:00:00 14.5 21 Norte 33 Norte 0 -- -- 72
2020-03-28 03:00:00 14.6 14 Nordeste 29 Norte 0 -- -- 74
2020-03-28 02:00:00 14.8 15 Norte 34 Norte 0 -- -- 73
2020-03-28 01:00:00 14.4 17 Norte 36 Norte 0.4 -- -- 82
2020-03-28 00:00:00 14.6 13 Norte 27 Nordeste 0.2 -- -- 83
2020-03-27 23:00:00 15.2 15 Norte 28 Norte 0 -- -- 77
2020-03-27 22:00:00 16 5 Sur 15 Sudoeste 0.2 -- -- 83
2020-03-27 21:00:00 16.1 5 Sur 9 Sur 0 -- -- 79
2020-03-27 20:00:00 16.2 7 Sur 19 Sur 0 -- -- 79
2020-03-27 19:00:00 17.1 14 Sur 26 Sur 0 -- -- 78
2020-03-27 18:00:00 18.2 17 Sur 28 Sur 0.4 -- -- 75
2020-03-27 17:00:00 21.2 20 Sur 33 Sur 0 -- -- 60
2020-03-27 16:00:00 23.1 21 Sur 36 Sur 0 -- -- 55
2020-03-27 15:00:00 22.9 24 Sur 33 Sur 0 -- -- 54
2020-03-27 14:00:00 23.2 19 Sur 33 Sur 0 -- -- 52
2020-03-27 13:00:00 22.6 19 Sur 32 Sur 0 -- -- 53
2020-03-27 12:00:00 18.7 12 Norte 31 Noroeste 0 -- -- 56
2020-03-27 11:00:00 17.2 10 Norte 21 Nordeste 0 -- -- 66
2020-03-27 10:00:00 16.1 10 Norte 21 Norte 0 -- -- 71
2020-03-27 09:00:00 14.8 8 Nordeste 13 Nordeste 0 -- -- 75
2020-03-27 08:00:00 14.3 6 Norte 17 Noroeste 0 -- -- 76
2020-03-27 07:00:00 14.1 4 Norte 15 Norte 0 -- -- 76
2020-03-27 06:00:00 13.7 6 Norte 14 Norte 0 -- -- 81
2020-03-27 05:00:00 13.4 3 Sudeste 9 Norte 0 -- -- 83
2020-03-27 04:00:00 13 0 Calma 6 Norte 0 -- -- 88
2020-03-27 03:00:00 12.6 0 Calma 8 Nordeste 0 -- -- 89
2020-03-27 02:00:00 12.3 6 Norte 9 Norte 0 -- -- 89
2020-03-27 01:00:00 12.5 0 Calma 10 Norte 0 -- -- 89
2020-03-27 00:00:00 12.7 4 Norte 9 Norte 0 -- -- 88
2020-03-26 23:00:00 13.5 3 Nordeste 13 Sur 0 -- -- 87
2020-03-26 22:00:00 14 6 Sur 15 Sur 0 -- -- 84
2020-03-26 21:00:00 15 12 Norte 22 Norte 0 -- -- 72
2020-03-26 20:00:00 14.2 2 Sur 12 Sudoeste 0 -- -- 88
2020-03-26 19:00:00 15 5 Sur 14 Sur 0 -- -- 86
2020-03-26 18:00:00 16.1 8 Sur 13 Sur 0 -- -- 88
2020-03-26 17:00:00 16.9 8 Sur 15 Sur 0 -- -- 90
2020-03-26 16:00:00 15 3 Sudoeste 10 Sur 0.6 -- -- 90
2020-03-26 15:00:00 14.8 4 Sur 9 Sur 1.8 -- -- 88
2020-03-26 14:00:00 15.2 5 Sur 17 Sudeste 1.2 -- -- 86
2020-03-26 13:00:00 16.2 12 Sur 24 Sur 0.4 -- -- 76
2020-03-26 12:00:00 17.1 15 Sur 28 Sur 0 -- -- 70
2020-03-26 11:00:00 18.1 16 Sur 22 Sur 0 -- -- 70
2020-03-26 10:00:00 16.3 8 Sudeste 13 Sur 0 -- -- 76
2020-03-26 09:00:00 14.3 3 Sur 9 Sur 0 -- -- 83
2020-03-26 08:00:00 13.4 4 Norte 11 Norte 0 -- -- 84
2020-03-26 07:00:00 13.2 6 Norte 9 Norte 0 -- -- 83
2020-03-26 06:00:00 13.3 4 Norte 8 Norte 0 -- -- 83
2020-03-26 05:00:00 13.5 5 Nordeste 8 Nordeste 0 -- -- 81
2020-03-26 04:00:00 14 2 Este 5 Norte 0 -- -- 77
2020-03-26 03:00:00 14.3 0 Calma 8 Norte 0 -- -- 75
2020-03-26 02:00:00 14.1 5 Nordeste 9 Norte 0 -- -- 78
2020-03-26 01:00:00 14.3 2 Nordeste 9 Norte 0 -- -- 75
2020-03-26 00:00:00 14.5 8 Nordeste 13 Nordeste 0 -- -- 75
2020-03-25 23:00:00 14.2 7 Norte 10 Norte 0 -- -- 75
2020-03-25 22:00:00 14.3 7 Norte 12 Nordeste 0 -- -- 74
2020-03-25 21:00:00 15 6 Norte 18 Norte 0 -- -- 70
2020-03-25 20:00:00 15.6 12 Norte 19 Norte 0 -- -- 68
2020-03-25 19:00:00 16.9 3 Sudoeste 16 Sur 0 -- -- 67
2020-03-25 18:00:00 17.3 11 Sur 21 Sur 0 -- -- 67
2020-03-25 17:00:00 18.4 14 Sur 24 Sur 0 -- -- 62
2020-03-25 16:00:00 19.6 17 Sur 24 Sur 0 -- -- 54
2020-03-25 15:00:00 18.6 11 Norte 22 Sur 0 -- -- 53
2020-03-25 14:00:00 19.1 8 Sur 25 Sudeste 0 -- -- 51
2020-03-25 13:00:00 20.1 17 Sur 23 Sur 0 -- -- 50
2020-03-25 12:00:00 19.5 15 Sur 27 Sur 0 -- -- 55
2020-03-25 11:00:00 19.1 5 Nordeste 24 Norte 0 -- -- 42
2020-03-25 10:00:00 17.6 11 Norte 19 Nordeste 0 -- -- 45
2020-03-25 09:00:00 16.3 3 Nordeste 6 Nordeste 0 -- -- 52
2020-03-25 08:00:00 14.7 0 Calma 9 Norte 0 -- -- 69
2020-03-25 07:00:00 14.4 5 Norte 12 Nordeste 0 -- -- 72
2020-03-25 06:00:00 14.3 6 Nordeste 12 Noroeste 0 -- -- 72
2020-03-25 05:00:00 15 8 Norte 20 Norte 0 -- -- 66
2020-03-25 04:00:00 15.3 9 Norte 19 Norte 0 -- -- 63
2020-03-25 03:00:00 15.3 12 Norte 26 Norte 0 -- -- 68
2020-03-25 02:00:00 15.3 18 Noroeste 32 Noroeste 0 -- -- 69
2020-03-25 01:00:00 15.2 12 Norte 26 Norte 0 -- -- 69
2020-03-25 00:00:00 15.4 20 Norte 36 Nordeste 0 -- -- 64
2020-03-24 23:00:00 15.3 17 Norte 30 Nordeste 0 -- -- 65
2020-03-24 22:00:00 15.2 15 Norte 30 Nordeste 0 -- -- 69
2020-03-24 21:00:00 15.7 13 Norte 29 Norte 0 -- -- 72
2020-03-24 20:00:00 15.7 18 Norte 38 Norte 0 -- -- 70
2020-03-24 19:00:00 16.5 17 Noroeste 35 Noroeste 0 -- -- 64
2020-03-24 18:00:00 17.4 22 Norte 43 Noroeste 0 -- -- 59
2020-03-24 17:00:00 18.3 22 Norte 44 Noroeste 0 -- -- 59
2020-03-24 16:00:00 18.4 31 Norte 50 Noroeste 0 -- -- 64
2020-03-24 15:00:00 19 21 Norte 41 Norte 0 -- -- 54
2020-03-24 14:00:00 19.3 26 Norte 48 Norte 0 -- -- 53
2020-03-24 13:00:00 18.8 26 Norte 54 Nordeste 0 -- -- 49
2020-03-24 12:00:00 18 24 Norte 49 Nordeste 0 -- -- 57
2020-03-24 11:00:00 17.1 24 Norte 50 Nordeste 0 -- -- 64
2020-03-24 10:00:00 16 18 Norte 42 Nordeste 0 -- -- 72
2020-03-24 09:00:00 15.2 17 Norte 36 Noroeste 0.6 -- -- 76
2020-03-24 08:00:00 14.8 14 Norte 51 Noroeste 0 -- -- 76
2020-03-24 07:00:00 14.4 18 Norte 43 Nordeste 0.2 -- -- 76
2020-03-24 06:00:00 14.1 16 Norte 45 Noroeste 0 -- -- 78
2020-03-24 05:00:00 14.2 15 Norte 48 Nordeste 1 -- -- 81
2020-03-24 04:00:00 14.7 17 Norte 48 Nordeste 0.2 -- -- 77
2020-03-24 03:00:00 14.9 22 Norte 52 Nordeste 0.2 -- -- 76
2020-03-24 02:00:00 15.1 23 Norte 59 Nordeste 0.2 -- -- 74
2020-03-24 01:00:00 15 25 Norte 67 Nordeste 0 -- -- 72
2020-03-24 00:00:00 15.2 23 Norte 46 Nordeste 0 -- -- 75
2020-03-23 23:00:00 15 24 Norte 59 Nordeste 0 -- -- 73
2020-03-23 22:00:00 15 26 Nordeste 67 Este 0.2 -- -- 74
2020-03-23 21:00:00 15.3 26 Norte 58 Nordeste 0 -- -- 72
2020-03-23 20:00:00 15 30 Norte 55 Nordeste 0 -- -- 71
2020-03-23 19:00:00 15.1 35 Norte 53 Nordeste 0 -- -- 64
2020-03-23 18:00:00 15.9 29 Norte 49 Norte 0 -- -- 62
2020-03-23 17:00:00 16.5 28 Norte 59 Nordeste 0 -- -- 61
2020-03-23 16:00:00 16.7 26 Norte 55 Nordeste 0 -- -- 61
2020-03-23 15:00:00 15.7 29 Norte 58 Nordeste 1 -- -- 70
2020-03-23 14:00:00 15.3 31 Nordeste 66 Nordeste 0 -- -- 71
2020-03-23 13:00:00 15.2 34 Norte 68 Nordeste 0.4 -- -- 70
2020-03-23 12:00:00 13.9 37 Norte 66 Nordeste 0.2 -- -- 71
2020-03-23 11:00:00 13.2 22 Nordeste 57 Nordeste 4 -- -- 77
2020-03-23 10:00:00 12.3 10 Norte 64 Nordeste 4.2 -- -- 79
2020-03-23 09:00:00 12.7 32 Nordeste 82 Nordeste 2.8 -- -- 78
2020-03-23 08:00:00 13.2 22 Norte 69 Noroeste 0 -- -- 72
2020-03-23 07:00:00 12.7 20 Este 69 Norte 3.6 -- -- 76
2020-03-23 06:00:00 12.9 24 Norte 54 Norte 0.6 -- -- 73
2020-03-23 05:00:00 13.9 23 Nordeste 62 Este 0 -- -- 63
2020-03-23 04:00:00 14.3 19 Este 58 Norte 0 -- -- 60
2020-03-23 03:00:00 14.4 18 Nordeste 37 Nordeste 0 -- -- 64
2020-03-23 02:00:00 14.5 18 Nordeste 60 Noroeste 0 -- -- 65
2020-03-23 01:00:00 14.9 17 Norte 59 Norte 0 -- -- 64
2020-03-23 00:00:00 15.3 19 Nordeste 44 Norte 0 -- -- 61
2020-03-22 23:00:00 15.5 15 Nordeste 48 Norte 0 -- -- 59
2020-03-22 22:00:00 15.5 18 Nordeste 43 Norte 0 -- -- 60
2020-03-22 21:00:00 15.7 26 Nordeste 48 Nordeste 0 -- -- 58
2020-03-22 20:00:00 15.6 16 Norte 39 Norte 0 -- -- 62
2020-03-22 19:00:00 17.8 4 Sudoeste 19 Sur 0 -- -- 61
2020-03-22 18:00:00 18.3 12 Sur 36 Sur 0 -- -- 63
2020-03-22 17:00:00 21.2 17 Sudoeste 40 Sur 0 -- -- 52
2020-03-22 16:00:00 21.9 20 Sur 33 Sur 0 -- -- 49
2020-03-22 15:00:00 22.6 24 Sur 37 Sur 0 -- -- 46
2020-03-22 14:00:00 23.1 24 Sur 37 Sur 0 -- -- 42
2020-03-22 13:00:00 21.1 19 Sur 37 Sur 0 -- -- 45
2020-03-22 12:00:00 17.4 17 Norte 37 Norte 0 -- -- 53
2020-03-22 11:00:00 16.9 13 Norte 41 Norte 0 -- -- 56
2020-03-22 10:00:00 15.1 15 Norte 33 Noroeste 0 -- -- 68
2020-03-22 09:00:00 15 13 Norte 34 Noroeste 0 -- -- 60
2020-03-22 08:00:00 14.3 11 Noroeste 35 Nordeste 0 -- -- 60
2020-03-22 07:00:00 14.5 18 Norte 41 Nordeste 0 -- -- 62
2020-03-22 06:00:00 14.5 24 Nordeste 51 Nordeste 0 -- -- 62
2020-03-22 05:00:00 14.4 23 Nordeste 49 Nordeste 0 -- -- 65
2020-03-22 04:00:00 14.5 18 Norte 32 Norte 0 -- -- 67
2020-03-22 03:00:00 14.4 19 Norte 37 Norte 0 -- -- 63
2020-03-22 02:00:00 14.6 23 Norte 48 Nordeste 0 -- -- 61
2020-03-22 01:00:00 14.5 23 Nordeste 45 Nordeste 0 -- -- 56
2020-03-22 00:00:00 14.8 22 Nordeste 46 Nordeste 0 -- -- 63
2020-03-21 23:00:00 14.8 24 Norte 47 Nordeste 0 -- -- 66
2020-03-21 22:00:00 14.6 14 Norte 41 Nordeste 0 -- -- 72
2020-03-21 21:00:00 15.2 30 Nordeste 50 Nordeste 0 -- -- 59
2020-03-21 20:00:00 15.1 27 Norte 50 Norte 0 -- -- 59
2020-03-21 19:00:00 15.9 24 Norte 43 Norte 0 -- -- 54
2020-03-21 18:00:00 17.4 24 Norte 44 Noroeste 0 -- -- 47
2020-03-21 17:00:00 17.4 29 Noroeste 45 Norte 0 -- -- 50
2020-03-21 16:00:00 17.7 28 Norte 40 Norte 0 -- -- 53
2020-03-21 15:00:00 17.9 22 Norte 47 Norte 0 -- -- 51
2020-03-21 14:00:00 17.7 31 Norte 46 Norte 0 -- -- 52
2020-03-21 13:00:00 18.2 23 Norte 43 Norte 0 -- -- 50
2020-03-21 12:00:00 17.9 22 Norte 38 Norte 0 -- -- 51
2020-03-21 11:00:00 16.4 17 Nordeste 34 Noroeste 0 -- -- 55
2020-03-21 10:00:00 15.7 23 Norte 45 Norte 0 -- -- 54
2020-03-21 09:00:00 14.7 27 Norte 41 Norte 0 -- -- 59
2020-03-21 08:00:00 14.3 19 Norte 37 Norte 0 -- -- 62
2020-03-21 07:00:00 14.3 23 Norte 42 Norte 0 -- -- 56
2020-03-21 06:00:00 14.6 26 Norte 38 Norte 0 -- -- 57
2020-03-21 05:00:00 15 21 Norte 28 Norte 0 -- -- 58
2020-03-21 04:00:00 14.6 11 Norte 31 Noroeste 0 -- -- 60
2020-03-21 03:00:00 15.1 16 Norte 35 Norte 0 -- -- 58
2020-03-21 02:00:00 15.3 12 Norte 32 Norte 0 -- -- 61
2020-03-21 01:00:00 15.8 16 Norte 38 Norte 0 -- -- 62
2020-03-21 00:00:00 16.2 22 Norte 35 Nordeste 0 -- -- 60
2020-03-20 23:00:00 16.4 14 Norte 33 Norte 0 -- -- 63
2020-03-20 22:00:00 16.4 20 Norte 33 Noroeste 0 -- -- 66
2020-03-20 21:00:00 17 10 Norte 28 Norte 0 -- -- 62
2020-03-20 20:00:00 16.5 17 Noroeste 37 Noroeste 0 -- -- 69
2020-03-20 19:00:00 16.9 22 Noroeste 36 Norte 0 -- -- 70
2020-03-20 18:00:00 19 24 Norte 36 Noroeste 0 -- -- 56
2020-03-20 17:00:00 19.5 22 Norte 46 Noroeste 0 -- -- 54
2020-03-20 16:00:00 19.6 21 Noroeste 42 Noroeste 0 -- -- 51
2020-03-20 15:00:00 19.6 28 Norte 49 Norte 0 -- -- 54
2020-03-20 14:00:00 19.9 27 Norte 39 Norte 0 -- -- 53
2020-03-20 13:00:00 19.3 21 Norte 40 Norte 0 -- -- 56
2020-03-20 12:00:00 18.2 28 Norte 55 Noroeste 0 -- -- 58
2020-03-20 11:00:00 17.8 29 Norte 55 Norte 0 -- -- 60
2020-03-20 10:00:00 16.8 23 Norte 43 Norte 0 -- -- 63
2020-03-20 09:00:00 16.4 23 Norte 49 Norte 0 -- -- 61
2020-03-20 08:00:00 16.1 24 Norte 40 Nordeste 0 -- -- 71
2020-03-20 07:00:00 15.9 18 Norte 50 Nordeste 0 -- -- 68
2020-03-20 06:00:00 15.9 18 Norte 37 Nordeste 0 -- -- 72
2020-03-20 05:00:00 15.9 23 Norte 36 Norte 0 -- -- 72
2020-03-20 04:00:00 16.1 17 Norte 33 Norte 0 -- -- 73
2020-03-20 03:00:00 16.3 14 Noroeste 34 Nordeste 0 -- -- 70
2020-03-20 02:00:00 16.5 17 Norte 42 Norte 0 -- -- 67
2020-03-20 01:00:00 16.3 16 Norte 46 Nordeste 0 -- -- 70
2020-03-20 00:00:00 16.6 24 Norte 53 Nordeste 0 -- -- 68
2020-03-19 23:00:00 16.8 22 Norte 59 Norte 0 -- -- 68
2020-03-19 22:00:00 16.8 15 Norte 45 Nordeste 0 -- -- 69
2020-03-19 21:00:00 16.8 17 Norte 42 Norte 0 -- -- 68
2020-03-19 20:00:00 17.1 18 Norte 45 Nordeste 0 -- -- 68
2020-03-19 19:00:00 17.5 19 Norte 47 Norte 0 -- -- 63
2020-03-19 18:00:00 18.4 21 Norte 51 Noroeste 0 -- -- 61
2020-03-19 17:00:00 19.5 30 Norte 49 Norte 0 -- -- 55
2020-03-19 16:00:00 20.3 30 Norte 48 Norte 0 -- -- 53
2020-03-19 15:00:00 20.4 26 Norte 52 Norte 0 -- -- 50
2020-03-19 14:00:00 19.6 28 Norte 61 Norte 0 -- -- 49
2020-03-19 13:00:00 19 37 Nordeste 63 Nordeste 0 -- -- 48
2020-03-19 12:00:00 18 28 Nordeste 56 Nordeste 0 -- -- 58
2020-03-19 11:00:00 16.5 32 Norte 60 Norte 0.2 -- -- 79
2020-03-19 10:00:00 15.9 33 Norte 72 Nordeste 0.2 -- -- 80
2020-03-19 09:00:00 15.6 33 Norte 81 Nordeste 0.6 -- -- 81
2020-03-19 08:00:00 15.3 35 Norte 66 Nordeste 0 -- -- 81
2020-03-19 07:00:00 15 33 Norte 73 Nordeste 0.2 -- -- 81
2020-03-19 06:00:00 14.9 36 Norte 67 Nordeste 0.2 -- -- 79
2020-03-19 05:00:00 15.1 31 Norte 65 Nordeste 0 -- -- 75
2020-03-19 04:00:00 15.1 30 Norte 72 Nordeste 0 -- -- 72
2020-03-19 03:00:00 15.2 32 Norte 77 Nordeste 0 -- -- 74
2020-03-19 02:00:00 14.9 32 Norte 62 Nordeste 0.2 -- -- 77
2020-03-19 01:00:00 15.3 28 Norte 60 Nordeste 0 -- -- 71
2020-03-19 00:00:00 15.3 28 Norte 54 Nordeste 0 -- -- 69
2020-03-18 23:00:00 15.3 25 Norte 60 Nordeste 0 -- -- 65
2020-03-18 22:00:00 15.2 37 Norte 87 Nordeste 0 -- -- 61
2020-03-18 21:00:00 15.3 37 Norte 66 Nordeste 0 -- -- 68
2020-03-18 20:00:00 14.7 32 Norte 66 Nordeste 0 -- -- 74
2020-03-18 19:00:00 15.5 29 Norte 57 Nordeste 0 -- -- 68
2020-03-18 18:00:00 16.1 28 Norte 66 Nordeste 0 -- -- 59
2020-03-18 17:00:00 16.5 28 Norte 71 Nordeste 0 -- -- 62
2020-03-18 16:00:00 17.8 28 Norte 62 Nordeste 0 -- -- 53
2020-03-18 15:00:00 18.1 26 Norte 57 Nordeste 0 -- -- 53
2020-03-18 14:00:00 18 17 Nordeste 45 Norte 0 -- -- 56
2020-03-18 13:00:00 17.8 17 Norte 38 Nordeste 0 -- -- 54
2020-03-18 12:00:00 16.4 19 Nordeste 44 Nordeste 0 -- -- 62
2020-03-18 11:00:00 15.7 21 Nordeste 46 Nordeste 0 -- -- 59
2020-03-18 10:00:00 15.8 20 Norte 50 Nordeste 0 -- -- 53
2020-03-18 09:00:00 15 25 Nordeste 52 Norte 0 -- -- 59
2020-03-18 08:00:00 14.6 23 Norte 45 Nordeste 0 -- -- 60
2020-03-18 07:00:00 14 20 Nordeste 47 Nordeste 0 -- -- 69
2020-03-18 06:00:00 14.7 24 Norte 54 Norte 0 -- -- 62
2020-03-18 05:00:00 14.1 23 Norte 52 Nordeste 0 -- -- 66
2020-03-18 04:00:00 13.9 24 Norte 45 Nordeste 0 -- -- 69
2020-03-18 03:00:00 14.5 23 Norte 48 Norte 0 -- -- 59
2020-03-18 02:00:00 14.5 24 Norte 54 Norte 0 -- -- 64
2020-03-18 01:00:00 14.1 18 Norte 54 Norte 0 -- -- 72
2020-03-18 00:00:00 15.2 23 Norte 48 Norte 0 -- -- 62
2020-03-17 23:00:00 15 19 Norte 57 Norte 0 -- -- 63
2020-03-17 22:00:00 14.5 21 Norte 44 Nordeste 0 -- -- 69
2020-03-17 21:00:00 15.4 26 Norte 60 Norte 0 -- -- 59
2020-03-17 20:00:00 15.5 15 Norte 42 Norte 0 -- -- 58
2020-03-17 19:00:00 16 25 Norte 41 Norte 0 -- -- 52
2020-03-17 18:00:00 17.5 30 Norte 47 Noroeste 0 -- -- 51
2020-03-17 17:00:00 18 26 Norte 39 Norte 0 -- -- 54
2020-03-17 16:00:00 18.7 22 Norte 45 Norte 0 -- -- 53
2020-03-17 15:00:00 18.9 18 Noroeste 42 Noroeste 0 -- -- 51
2020-03-17 14:00:00 22.1 19 Sur 32 Norte 0 -- -- 46
2020-03-17 13:00:00 18.1 19 Norte 48 Noroeste 0 -- -- 52
2020-03-17 12:00:00 18 21 Noroeste 48 Norte 0 -- -- 51
2020-03-17 11:00:00 16.4 28 Norte 41 Norte 0 -- -- 59
2020-03-17 10:00:00 16.1 21 Norte 39 Norte 0 -- -- 57
2020-03-17 09:00:00 15.1 15 Norte 29 Norte 0 -- -- 61
2020-03-17 08:00:00 14.2 17 Norte 39 Norte 0 -- -- 63
2020-03-17 07:00:00 14 20 Norte 34 Norte 0 -- -- 64
2020-03-17 06:00:00 13.9 22 Norte 42 Norte 0 -- -- 66
2020-03-17 05:00:00 14.1 12 Norte 37 Norte 0 -- -- 63
2020-03-17 04:00:00 13.8 21 Norte 41 Norte 0 -- -- 69
2020-03-17 03:00:00 14.3 22 Norte 40 Nordeste 0 -- -- 59
2020-03-17 02:00:00 14.5 22 Norte 42 Norte 0 -- -- 59
2020-03-17 01:00:00 15 21 Norte 43 Norte 0 -- -- 59
2020-03-17 00:00:00 15.6 25 Norte 46 Norte 0 -- -- 61
2020-03-16 23:00:00 16.1 25 Norte 49 Norte 0 -- -- 61
2020-03-16 22:00:00 16.5 24 Norte 46 Norte 0 -- -- 59
2020-03-16 21:00:00 16.8 24 Norte 50 Norte 0 -- -- 59
2020-03-16 20:00:00 17 31 Norte 58 Norte 0 -- -- 59
2020-03-16 19:00:00 17.6 24 Norte 50 Norte 0 -- -- 58
2020-03-16 18:00:00 19.1 24 Norte 53 Norte 0 -- -- 53
2020-03-16 17:00:00 20 26 Norte 57 Norte 0 -- -- 47
2020-03-16 16:00:00 20.4 33 Norte 55 Norte 0 -- -- 46
2020-03-16 15:00:00 20.5 31 Norte 47 Norte 0 -- -- 42
2020-03-16 14:00:00 20.9 22 Norte 41 Norte 0 -- -- 42
2020-03-16 13:00:00 20.4 21 Norte 42 Noroeste 0 -- -- 41
2020-03-16 12:00:00 19.3 25 Norte 44 Norte 0 -- -- 45
2020-03-16 11:00:00 17.9 21 Norte 47 Norte 0 -- -- 53
2020-03-16 10:00:00 17 28 Norte 46 Norte 0 -- -- 60
2020-03-16 09:00:00 16.9 14 Norte 48 Norte 0 -- -- 57
2020-03-16 08:00:00 16.4 19 Norte 49 Norte 0 -- -- 59
2020-03-16 07:00:00 16 21 Norte 46 Norte 0 -- -- 59
2020-03-16 06:00:00 15.8 23 Norte 47 Norte 0 -- -- 65
2020-03-16 05:00:00 16.6 23 Norte 44 Noroeste 0 -- -- 56
2020-03-16 04:00:00 16.9 20 Norte 37 Norte 0 -- -- 58
2020-03-16 03:00:00 17 12 Norte 30 Norte 0 -- -- 57
2020-03-16 02:00:00 16.7 18 Norte 40 Norte 0 -- -- 59
2020-03-16 01:00:00 16.9 15 Noroeste 49 Norte 0 -- -- 52
2020-03-16 00:00:00 16.6 19 Norte 45 Norte 0 -- -- 57
2020-03-15 23:00:00 16 22 Norte 42 Norte 0 -- -- 67
2020-03-15 22:00:00 16.7 24 Norte 57 Noroeste 0 -- -- 55
2020-03-15 21:00:00 16.7 32 Norte 56 Norte 0 -- -- 53
2020-03-15 20:00:00 16.6 27 Norte 48 Norte 0 -- -- 60
2020-03-15 19:00:00 16.6 18 Norte 36 Nordeste 0 -- -- 63
2020-03-15 18:00:00 17.8 21 Norte 55 Norte 0 -- -- 54
2020-03-15 17:00:00 18 32 Norte 47 Norte 0 -- -- 64
2020-03-15 16:00:00 19.8 24 Norte 45 Norte 0 -- -- 50
2020-03-15 15:00:00 20.2 19 Nordeste 37 Nordeste 0 -- -- 41
2020-03-15 14:00:00 19.5 26 Norte 44 Norte 0 -- -- 44
2020-03-15 13:00:00 18.6 27 Norte 49 Norte 0 -- -- 52
2020-03-15 12:00:00 18.6 17 Norte 43 Norte 0 -- -- 46
2020-03-15 11:00:00 17.7 19 Norte 37 Norte 0 -- -- 49
2020-03-15 10:00:00 17.3 22 Nordeste 45 Norte 0 -- -- 48
2020-03-15 09:00:00 16.1 26 Norte 38 Norte 0 -- -- 54
2020-03-15 08:00:00 15.5 18 Norte 30 Norte 0 -- -- 59
2020-03-15 07:00:00 15.4 17 Norte 31 Norte 0 -- -- 60
2020-03-15 06:00:00 15 15 Norte 34 Norte 0 -- -- 65
2020-03-15 05:00:00 15.1 18 Norte 28 Norte 0 -- -- 68
2020-03-15 04:00:00 15.4 18 Norte 40 Norte 0 -- -- 61
2020-03-15 03:00:00 15.5 27 Norte 42 Norte 0 -- -- 62
2020-03-15 02:00:00 15.6 18 Norte 37 Norte 0 -- -- 61
2020-03-15 01:00:00 15.8 12 Norte 42 Norte 0 -- -- 57
2020-03-15 00:00:00 16.2 28 Norte 52 Norte 0 -- -- 54
2020-03-14 23:00:00 16.6 24 Norte 44 Norte 0 -- -- 52
2020-03-14 22:00:00 16.6 22 Norte 42 Norte 0 -- -- 52
2020-03-14 21:00:00 16.8 21 Norte 38 Nordeste 0 -- -- 50
2020-03-14 20:00:00 17 17 Norte 39 Norte 0 -- -- 49
2020-03-14 19:00:00 17.5 19 Norte 36 Norte 0 -- -- 49
2020-03-14 18:00:00 18.1 19 Norte 36 Norte 0 -- -- 53
2020-03-14 17:00:00 18.3 24 Norte 36 Norte 0 -- -- 57
2020-03-14 16:00:00 19.5 19 Norte 31 Norte 0 -- -- 56
2020-03-14 15:00:00 19.9 20 Norte 31 Norte 0 -- -- 57
2020-03-14 14:00:00 23.3 13 Sudoeste 21 Sur 0 -- -- 52
2020-03-14 13:00:00 20.8 16 Sur 30 Sur 0 -- -- 61
2020-03-14 12:00:00 19.9 21 Sur 30 Sur 0 -- -- 69
2020-03-14 11:00:00 19.8 15 Sur 22 Sur 0 -- -- 66
2020-03-14 10:00:00 19.2 9 Sur 13 Sur 0 -- -- 69
2020-03-14 09:00:00 15.6 4 Nordeste 9 Norte 0 -- -- 71
2020-03-14 08:00:00 14.1 0 Calma 10 Norte 0 -- -- 76
2020-03-14 07:00:00 14.5 3 Nordeste 15 Norte 0 -- -- 75
2020-03-14 06:00:00 15.1 12 Nordeste 20 Nordeste 0 -- -- 74
2020-03-14 05:00:00 15 10 Norte 17 Nordeste 0 -- -- 77
2020-03-14 04:00:00 15.1 7 Nordeste 15 Nordeste 0 -- -- 77
2020-03-14 03:00:00 15 4 Norte 10 Norte 0 -- -- 75
2020-03-14 02:00:00 15.4 6 Norte 12 Nordeste 0 -- -- 74
2020-03-14 01:00:00 16.2 3 Sudeste 15 Nordeste 0 -- -- 76
2020-03-14 00:00:00 16.7 8 Este 27 Nordeste 0 -- -- 73
2020-03-13 23:00:00 17 16 Nordeste 29 Este 0 -- -- 66
2020-03-13 22:00:00 17.7 4 Este 24 Norte 0 -- -- 69
2020-03-13 21:00:00 18.2 14 Norte 31 Nordeste 0 -- -- 60
2020-03-13 20:00:00 18.4 14 Norte 29 Nordeste 0 -- -- 60
2020-03-13 19:00:00 19.4 13 Norte 26 Nordeste 0 -- -- 59
2020-03-13 18:00:00 21.8 10 Sur 20 Sur 0 -- -- 57
2020-03-13 17:00:00 23.3 13 Sur 21 Sur 0 -- -- 51
2020-03-13 16:00:00 25.2 17 Sur 27 Sur 0 -- -- 47
2020-03-13 15:00:00 25.3 19 Sur 27 Sur 0 -- -- 42
2020-03-13 14:00:00 25.4 18 Sur 30 Sur 0 -- -- 53
2020-03-13 13:00:00 25.1 18 Sur 29 Sur 0 -- -- 55
2020-03-13 12:00:00 23.4 21 Sur 27 Sur 0 -- -- 59
2020-03-13 11:00:00 22.5 20 Sur 27 Sur 0 -- -- 63
2020-03-13 10:00:00 20.8 8 Sur 13 Sur 0 -- -- 68
2020-03-13 09:00:00 17.3 2 Nordeste 6 Sur 0 -- -- 76
2020-03-13 08:00:00 16.2 2 Norte 11 Sur 0 -- -- 69
2020-03-13 07:00:00 16.3 4 Norte 6 Norte 0 -- -- 62
2020-03-13 06:00:00 16.7 2 Nordeste 5 Norte 0 -- -- 65
2020-03-13 05:00:00 17.3 3 Sur 7 Norte 0 -- -- 64
2020-03-13 04:00:00 18.8 0 Calma 15 Nordeste 0 -- -- 68
2020-03-13 03:00:00 22.3 10 Norte 13 Nordeste 0 -- -- 24
2020-03-13 02:00:00 22.5 10 Norte 14 Norte 0 -- -- 25
2020-03-13 01:00:00 22.6 10 Norte 15 Norte 0 -- -- 28
2020-03-13 00:00:00 22.8 8 Norte 12 Norte 0 -- -- 29
2020-03-12 23:00:00 23.2 8 Norte 11 Norte 0 -- -- 27
2020-03-12 22:00:00 22.9 5 Norte 8 Norte 0 -- -- 28
2020-03-12 21:00:00 22.5 2 Nordeste 4 Norte 0 -- -- 32
2020-03-12 20:00:00 22.5 3 Norte 5 Sur 0 -- -- 39
2020-03-12 19:00:00 24.3 3 Sur 17 Sur 0 -- -- 36
2020-03-12 18:00:00 26.7 15 Sur 24 Sur 0 -- -- 34
2020-03-12 17:00:00 29.2 19 Sur 25 Sur 0 -- -- 30
2020-03-12 16:00:00 30 19 Sur 27 Sur 0 -- -- 30
2020-03-12 15:00:00 30.9 20 Sur 29 Sur 0 -- -- 28
2020-03-12 14:00:00 31 23 Sur 36 Sudoeste 0 -- -- 27
2020-03-12 13:00:00 30.4 20 Sur 33 Sudoeste 0 -- -- 24
2020-03-12 12:00:00 28.9 14 Sur 21 Sur 0 -- -- 27
2020-03-12 11:00:00 28 13 Sur 19 Sur 0 -- -- 25
2020-03-12 10:00:00 24.7 3 Sur 9 Sur 0 -- -- 18
2020-03-12 09:00:00 21 0 Calma 6 Norte 0 -- -- 18
2020-03-12 08:00:00 19.6 4 Norte 8 Sudeste 0 -- -- 19
2020-03-12 07:00:00 20.7 4 Nordeste 13 Norte 0 -- -- 16
2020-03-12 06:00:00 21.3 7 Nordeste 13 Norte 0 -- -- 15
2020-03-12 05:00:00 21.5 3 Nordeste 15 Norte 0 -- -- 15
2020-03-12 04:00:00 21.9 5 Nordeste 12 Norte 0 -- -- 15
2020-03-12 03:00:00 22.4 6 Nordeste 12 Norte 0 -- -- 15
2020-03-12 02:00:00 23.3 10 Norte 14 Norte 0 -- -- 14
2020-03-12 01:00:00 23.5 8 Norte 15 Norte 0 -- -- 15
2020-03-12 00:00:00 23.7 11 Norte 14 Norte 0 -- -- 16
2020-03-11 23:00:00 23.3 9 Norte 11 Norte 0 -- -- 17
2020-03-11 22:00:00 22.3 2 Norte 5 Norte 0 -- -- 19
2020-03-11 21:00:00 22.6 3 Nordeste 7 Norte 0 -- -- 22
2020-03-11 20:00:00 23.4 0 Calma 12 Sur 0 -- -- 24
2020-03-11 19:00:00 25.7 8 Sur 13 Sur 0 -- -- 24
2020-03-11 18:00:00 27.4 8 Sudoeste 17 Sur 0 -- -- 25
2020-03-11 17:00:00 27.4 12 Sur 30 Sur 0 -- -- 30
2020-03-11 16:00:00 28.9 15 Sur 29 Sur 0 -- -- 34
2020-03-11 15:00:00 28.9 19 Sur 27 Sur 0 -- -- 43
2020-03-11 14:00:00 26.6 14 Sur 23 Sur 0 -- -- 53
2020-03-11 13:00:00 24.3 15 Sur 19 Sur 0 -- -- 59
2020-03-11 12:00:00 26.2 14 Sur 23 Sur 0 -- -- 52
2020-03-11 11:00:00 24.9 12 Sur 18 Sur 0 -- -- 45
2020-03-11 10:00:00 20 8 Sur 12 Sudoeste 0 -- -- 51
2020-03-11 09:00:00 17.5 3 Norte 18 Sur 0 -- -- 49
2020-03-11 08:00:00 16.3 4 Norte 9 Sur 0 -- -- 42
2020-03-11 07:00:00 16.4 4 Norte 12 Sur 0 -- -- 47
2020-03-11 06:00:00 16.2 6 Norte 10 Sur 0 -- -- 43
2020-03-11 05:00:00 15.5 4 Norte 14 Sur 0 -- -- 66
2020-03-11 04:00:00 17.5 2 Sur 8 Norte 0 -- -- 58
2020-03-11 03:00:00 19.4 6 Norte 13 Norte 0 -- -- 24
2020-03-11 02:00:00 19.7 5 Norte 13 Norte 0 -- -- 24
2020-03-11 01:00:00 21 6 Norte 12 Nordeste 0 -- -- 26
2020-03-11 00:00:00 21.6 7 Norte 14 Norte 0 -- -- 25
2020-03-10 23:00:00 21.3 8 Norte 11 Norte 0 -- -- 26
2020-03-10 22:00:00 21.8 8 Norte 10 Nordeste 0 -- -- 27
2020-03-10 21:00:00 21.4 7 Norte 12 Norte 0 -- -- 25
2020-03-10 20:00:00 20.9 3 Sur 9 Sur 0 -- -- 48
2020-03-10 19:00:00 21.7 2 Norte 23 Sur 0 -- -- 37
2020-03-10 18:00:00 25.2 15 Sur 28 Sur 0 -- -- 28
2020-03-10 17:00:00 29.3 18 Sur 29 Sur 0 -- -- 21
2020-03-10 16:00:00 29.6 18 Sur 31 Sur 0 -- -- 24
2020-03-10 15:00:00 29.1 17 Sur 28 Sur 0 -- -- 34
2020-03-10 14:00:00 28.2 18 Sur 25 Sur 0 -- -- 43
2020-03-10 13:00:00 26.4 18 Sur 24 Sur 0 -- -- 47
2020-03-10 12:00:00 25 18 Sur 25 Sur 0 -- -- 48
2020-03-10 11:00:00 24.8 14 Sur 23 Sur 0 -- -- 43
2020-03-10 10:00:00 22.9 6 Sur 11 Sur 0 -- -- 36
2020-03-10 09:00:00 19.5 0 Calma 9 Norte 0 -- -- 20
2020-03-10 08:00:00 18.5 3 Sur 10 Norte 0 -- -- 20
2020-03-10 07:00:00 19.2 4 Nordeste 9 Norte 0 -- -- 19
2020-03-10 06:00:00 20 3 Este 12 Norte 0 -- -- 19
2020-03-10 05:00:00 21.6 9 Norte 15 Noroeste 0 -- -- 17
2020-03-10 04:00:00 21.8 10 Norte 22 Nordeste 0 -- -- 18
2020-03-10 03:00:00 22.7 11 Norte 19 Nordeste 0 -- -- 18
2020-03-10 02:00:00 22.6 13 Norte 21 Norte 0 -- -- 19
2020-03-10 01:00:00 23 14 Norte 20 Nordeste 0 -- -- 19
2020-03-10 00:00:00 23.2 13 Norte 20 Nordeste 0 -- -- 19
2020-03-09 23:00:00 24.4 8 Nordeste 22 Norte 0 -- -- 18
2020-03-09 22:00:00 24.5 12 Norte 23 Norte 0 -- -- 18
2020-03-09 21:00:00 22.7 8 Norte 18 Norte 0 -- -- 22
2020-03-09 20:00:00 21.7 2 Norte 14 Sur 0 -- -- 32
2020-03-09 19:00:00 23.5 11 Sur 21 Sur 0 -- -- 33
2020-03-09 18:00:00 27.5 16 Sur 23 Sur 0 -- -- 29
2020-03-09 17:00:00 29 17 Sur 28 Sur 0 -- -- 25
2020-03-09 16:00:00 29.7 18 Sur 32 Sur 0 -- -- 24
2020-03-09 15:00:00 30.3 22 Sur 33 Sur 0 -- -- 24
2020-03-09 14:00:00 29.9 21 Sur 32 Sur 0 -- -- 24
2020-03-09 13:00:00 28.7 24 Sur 40 Sur 0 -- -- 27
2020-03-09 12:00:00 29.7 17 Sur 34 Sur 0 -- -- 17
2020-03-09 11:00:00 28.7 15 Sur 23 Sur 0 -- -- 18
2020-03-09 10:00:00 26 10 Noroeste 21 Norte 0 -- -- 16
2020-03-09 09:00:00 24.4 9 Norte 25 Norte 0 -- -- 17
2020-03-09 08:00:00 23.6 6 Este 26 Noroeste 0 -- -- 18
2020-03-09 07:00:00 23.8 7 Norte 32 Norte 0 -- -- 18
2020-03-09 06:00:00 24.5 17 Norte 27 Norte 0 -- -- 18
2020-03-09 05:00:00 24.9 17 Norte 33 Norte 0 -- -- 17
2020-03-09 04:00:00 25.1 14 Norte 30 Norte 0 -- -- 17
2020-03-09 03:00:00 23.8 11 Nordeste 22 Norte 0 -- -- 18
2020-03-09 02:00:00 23.4 14 Norte 23 Norte 0 -- -- 18
2020-03-09 01:00:00 23.6 13 Norte 23 Nordeste 0 -- -- 19
2020-03-09 00:00:00 25.4 13 Nordeste 20 Nordeste 0 -- -- 15
2020-03-08 23:00:00 25.5 8 Nordeste 16 Norte 0 -- -- 14
2020-03-08 22:00:00 25.8 10 Norte 15 Nordeste 0 -- -- 14
2020-03-08 21:00:00 25.7 5 Norte 19 Norte 0 -- -- 14
2020-03-08 20:00:00 26.6 13 Norte 25 Norte 0 -- -- 14
2020-03-08 19:00:00 26.2 6 Noroeste 15 Sur 0 -- -- 21
2020-03-08 18:00:00 28.8 12 Sur 22 Sur 0 -- -- 28
2020-03-08 17:00:00 29.9 16 Sur 26 Sur 0 -- -- 28
2020-03-08 16:00:00 30.6 17 Sur 28 Sur 0 -- -- 28
2020-03-08 15:00:00 29.8 21 Sur 33 Sur 0 -- -- 30
2020-03-08 14:00:00 29.4 24 Sur 37 Sur 0 -- -- 29
2020-03-08 13:00:00 28.7 26 Sur 35 Sur 0 -- -- 29
2020-03-08 12:00:00 27 10 Sur 23 Sur 0 -- -- 34
2020-03-08 11:00:00 24.3 14 Sur 21 Sur 0 -- -- 44
2020-03-08 10:00:00 20.9 7 Sur 12 Sudoeste 0 -- -- 50
2020-03-08 09:00:00 17.3 5 Nordeste 10 Nordeste 0 -- -- 56
2020-03-08 08:00:00 15.8 3 Nordeste 9 Norte 0 -- -- 45
2020-03-08 07:00:00 15.6 4 Nordeste 10 Norte 0 -- -- 43
2020-03-08 06:00:00 16 2 Norte 10 Norte 0 -- -- 41
2020-03-08 05:00:00 15.1 5 Norte 12 Sur 0 -- -- 65
2020-03-08 04:00:00 17.2 9 Sur 17 Norte 0 -- -- 56
2020-03-08 03:00:00 16.1 0 Calma 11 Sur 0 -- -- 73
2020-03-08 02:00:00 18.2 9 Sur 36 Norte 0 -- -- 58
2020-03-08 01:00:00 19 24 Norte 35 Norte 0 -- -- 48
2020-03-08 00:00:00 17.9 23 Norte 33 Norte 0 -- -- 58
2020-03-07 23:00:00 17.5 17 Norte 35 Norte 0 -- -- 61
2020-03-07 22:00:00 17.6 20 Norte 33 Nordeste 0 -- -- 62
2020-03-07 21:00:00 17.8 20 Norte 40 Nordeste 0 -- -- 62
2020-03-07 20:00:00 17.9 22 Nordeste 37 Nordeste 0 -- -- 62
2020-03-07 19:00:00 18.4 25 Nordeste 35 Nordeste 0 -- -- 61
2020-03-07 18:00:00 21.6 9 Norte 19 Sur 0 -- -- 51
2020-03-07 17:00:00 23.5 17 Sur 33 Nordeste 0 -- -- 43
2020-03-07 16:00:00 22 19 Nordeste 32 Nordeste 0 -- -- 50
2020-03-07 15:00:00 26.2 16 Sur 28 Sur 0 -- -- 37
2020-03-07 14:00:00 25.2 22 Sur 29 Sur 0 -- -- 44
2020-03-07 13:00:00 23.4 21 Sur 33 Sur 0 -- -- 51
2020-03-07 12:00:00 21.4 11 Nordeste 24 Este 0 -- -- 47
2020-03-07 11:00:00 19.9 10 Este 19 Nordeste 0 -- -- 47
2020-03-07 10:00:00 18.6 6 Sudeste 12 Sudeste 0 -- -- 53
2020-03-07 09:00:00 14.9 5 Sur 16 Norte 0 -- -- 62
2020-03-07 08:00:00 14.3 14 Nordeste 21 Nordeste 0 -- -- 66
2020-03-07 07:00:00 13.3 4 Norte 8 Norte 0 -- -- 69
2020-03-07 06:00:00 13.6 0 Calma 12 Nordeste 0 -- -- 67
2020-03-07 05:00:00 14.1 9 Norte 22 Nordeste 0 -- -- 67
2020-03-07 04:00:00 14.6 15 Nordeste 27 Nordeste 0 -- -- 64
2020-03-07 03:00:00 14.8 11 Nordeste 22 Nordeste 0 -- -- 62
2020-03-07 02:00:00 14.8 6 Norte 23 Nordeste 0 -- -- 60
2020-03-07 01:00:00 15.4 15 Nordeste 24 Nordeste 0 -- -- 60
2020-03-07 00:00:00 15.6 9 Nordeste 17 Nordeste 0 -- -- 56
2020-03-06 23:00:00 15.5 11 Norte 18 Nordeste 0 -- -- 57
2020-03-06 22:00:00 16.3 12 Nordeste 28 Nordeste 0 -- -- 54
2020-03-06 21:00:00 16.6 12 Nordeste 29 Este 0 -- -- 51
2020-03-06 20:00:00 16.9 17 Nordeste 23 Nordeste 0 -- -- 57
2020-03-06 19:00:00 18.7 5 Sudeste 21 Sur 0 -- -- 54
2020-03-06 18:00:00 22.6 15 Sur 24 Sur 0 -- -- 55
2020-03-06 17:00:00 24.3 16 Sur 27 Sur 0 -- -- 50
2020-03-06 16:00:00 24.6 20 Sur 30 Sur 0 -- -- 51
2020-03-06 15:00:00 25 20 Sur 28 Sur 0 -- -- 51
2020-03-06 14:00:00 24.4 21 Sur 32 Sur 0 -- -- 53
2020-03-06 13:00:00 23.4 24 Sur 33 Sur 0 -- -- 56
2020-03-06 12:00:00 22 20 Sur 30 Sur 0 -- -- 61
2020-03-06 11:00:00 21.4 13 Sur 21 Sur 0 -- -- 65
2020-03-06 10:00:00 19.2 10 Sur 16 Sur 0 -- -- 69
2020-03-06 09:00:00 16.1 7 Nordeste 10 Norte 0 -- -- 75
2020-03-06 08:00:00 14.6 3 Sudeste 8 Sudeste 0 -- -- 86
2020-03-06 07:00:00 14.4 0 Calma 6 Nordeste 0 -- -- 87
2020-03-06 06:00:00 14.5 2 Norte 8 Norte 0 -- -- 89
2020-03-06 05:00:00 14.3 5 Norte 9 Nordeste 0 -- -- 88
2020-03-06 04:00:00 14.6 4 Norte 9 Norte 0 -- -- 88
2020-03-06 03:00:00 15 3 Nordeste 5 Norte 0 -- -- 87
2020-03-06 02:00:00 15.4 3 Sur 7 Sudeste 0 -- -- 86
2020-03-06 01:00:00 16 6 Sudeste 8 Sudeste 0 -- -- 82
2020-03-06 00:00:00 17 3 Sudeste 23 Nordeste 0 -- -- 75
2020-03-05 23:00:00 17.5 15 Nordeste 30 Nordeste 0 -- -- 63
2020-03-05 22:00:00 17.3 17 Nordeste 31 Nordeste 0 -- -- 65
2020-03-05 21:00:00 18.1 12 Nordeste 27 Nordeste 0 -- -- 68
2020-03-05 20:00:00 18.4 18 Nordeste 33 Nordeste 0 -- -- 64
2020-03-05 19:00:00 19 22 Nordeste 33 Nordeste 0 -- -- 64
2020-03-05 18:00:00 23.7 14 Sur 22 Sur 0 -- -- 57
2020-03-05 17:00:00 24.3 18 Sur 28 Sur 0 -- -- 59
2020-03-05 16:00:00 25.1 20 Sur 30 Sur 0 -- -- 58
2020-03-05 15:00:00 25.6 16 Sur 29 Sur 0 -- -- 57
2020-03-05 14:00:00 24.9 21 Sur 34 Sur 0 -- -- 59
2020-03-05 13:00:00 24.3 19 Sur 30 Sur 0 -- -- 61
2020-03-05 12:00:00 23.5 20 Sur 29 Sur 0 -- -- 64
2020-03-05 11:00:00 23.1 14 Sur 27 Este 0 -- -- 60
2020-03-05 10:00:00 19.4 6 Sur 25 Norte 0 -- -- 68
2020-03-05 09:00:00 15.7 3 Sur 9 Norte 0 -- -- 90
2020-03-05 08:00:00 14.8 2 Norte 5 Norte 0 -- -- 90
2020-03-05 07:00:00 15.1 2 Noroeste 10 Sur 0 -- -- 89
2020-03-05 06:00:00 15.7 4 Norte 9 Nordeste 0 -- -- 89
2020-03-05 05:00:00 16.6 3 Nordeste 17 Sur 0 -- -- 85
2020-03-05 04:00:00 17.1 7 Norte 17 Noroeste 0 -- -- 77
2020-03-05 03:00:00 17.2 3 Nordeste 20 Sur 0 -- -- 80
2020-03-05 02:00:00 16.8 4 Norte 23 Sur 0 -- -- 88
2020-03-05 01:00:00 17.4 4 Norte 15 Sudoeste 0 -- -- 83
2020-03-05 00:00:00 17.5 5 Norte 12 Sur 0 -- -- 83
2020-03-04 23:00:00 18.3 0 Calma 16 Sur 0 -- -- 74
2020-03-04 22:00:00 19.3 2 Norte 5 Norte 0 -- -- 66
2020-03-04 21:00:00 19.2 2 Nordeste 17 Sur 0 -- -- 76
2020-03-04 20:00:00 21 0 Calma 6 Norte 0 -- -- 68
2020-03-04 19:00:00 21.3 0 Calma 17 Sur 0 -- -- 69
2020-03-04 18:00:00 25.8 13 Sudoeste 23 Sur 0 -- -- 53
2020-03-04 17:00:00 26.9 16 Sur 26 Sur 0 -- -- 46
2020-03-04 16:00:00 27.6 19 Sur 29 Sur 0 -- -- 38
2020-03-04 15:00:00 28.7 18 Sur 28 Sur 0 -- -- 35
2020-03-04 14:00:00 28.5 18 Sur 25 Sur 0 -- -- 34
2020-03-04 13:00:00 27.4 17 Sur 23 Sur 0 -- -- 37
2020-03-04 12:00:00 25.9 15 Sur 23 Sur 0 -- -- 42
2020-03-04 11:00:00 24.4 11 Sur 15 Sur 0 -- -- 47
2020-03-04 10:00:00 19.9 2 Sudeste 6 Sur 0 -- -- 61
2020-03-04 09:00:00 16.9 0 Calma 9 Nordeste 0 -- -- 71
2020-03-04 08:00:00 15.5 4 Norte 7 Norte 0 -- -- 73
2020-03-04 07:00:00 15.2 3 Sur 7 Norte 0 -- -- 76
2020-03-04 06:00:00 15.2 2 Nordeste 8 Norte 0 -- -- 80
2020-03-04 05:00:00 15.3 3 Norte 7 Norte 0 -- -- 82
2020-03-04 04:00:00 15.6 5 Norte 7 Norte 0 -- -- 82
2020-03-04 03:00:00 15.8 0 Calma 6 Norte 0 -- -- 82
2020-03-04 02:00:00 16 0 Calma 7 Norte 0 -- -- 82
2020-03-04 01:00:00 16.5 0 Calma 5 Norte 0 -- -- 84
2020-03-04 00:00:00 16.4 0 Calma 8 Nordeste 0 -- -- 85